首页
METAR-TAF:

METAR-TAF

机场 :

羅利達拉姆國際機場

罗利 / 达勒姆, 北卡罗来纳州, 美国

纬度: 35-52-14N, 经度: 078-47-11W, 海拔: 133米

当前天气观测

该预报发布于1小时和17分钟前的17:51 UTC
风速3节,风向多变
温度 14°C
湿度 67%
气压 1021 hPa
能見度: 16.1公里
少量云层高于4000英尺
多云层高于20000英尺
多云层高于25000英尺

METAR: KRDU 181751Z VRB03KT 10SM FEW040 BKN200 BKN250 14/08 A3016 RMK AO2 SLP211 T01440083 10144 20033 58027

时间: 14:08 (19:08 UTC)

预报

该预报发布于1小时和28分钟前的17:40 UTC
预报有效从18日的 18点(UTC)到 19日的 18点(UTC)
风速5节,风向南转西南
能見度: 10公里
少量云层高于2200英尺
散云层高于4000英尺
多云层高于20000英尺
短暂存在
从 19日的 00点(UTC)到 19日的 03点(UTC)
能見度: 8.0公里
多云层高于1800英尺
阴天层高于2500英尺
小阵雨
从 19日的 0300点(UTC)
风速6节,风向南转西南
能見度: 4.8公里
多云层高于600英尺
阴天层高于1200英尺
小阵雨, 轻雾
从 19日的 0900点(UTC)
风速9节,风向,有时为18节阵风
能見度: 9.7公里
多云层高于1200英尺
阴天层高于5000英尺
小雨
从 19日的 1400点(UTC)
风速10节,风向北转东北,有时为18节阵风
能見度: 10公里
多云层高于5000英尺
阴天层高于8000英尺

TAF: KRDU 181740Z 1818/1918 20005KT P6SM FEW022 SCT040 BKN200 TEMPO 1900/1903 5SM -SHRA BKN018 OVC025 FM190300 21006KT 3SM -SHRA BR BKN006 OVC012 FM190900 35009G18KT 6SM -RA BKN012 OVC050 FM191400 02010G18KT P6SM BKN050 OVC080

超过4000个机场的气象观测和天气预报(METAR&TAF报告)。

可查询的气象台以黄色和红色小点在地图上表示。

将鼠标移到小点上方,可查看气象台名称。

然后点击查看天气观测和预报。

如需切换地图:点击带黑十字的绿色按钮放大地图;点击带横线的绿色按钮缩小地图;或者点击绿色箭头查看邻近地区的地图。


METAR-TAF: